Time;durP1;ratioP1;P1;durP2;ratioP2;P2;SDS_P1;SDS_P2;PMS_P1;PMS_P2;Temp;Humidity;BMP_temperature;BMP_pressure;BME280_temperature;BME280_humidity;BME280_pressure;Samples;Min_cycle;Max_cycle;Signal;HPM_P1;HPM_P2
2022/05/12 00:00:53;;;;;;;;;5.50;2.00;;;;;19.96;84.68;101392.44;5036988;28;45391;-80
2022/05/12 00:03:19;;;;;;;;;1.75;1.50;;;;;19.93;84.82;101402.91;5036405;28;45930;-80
2022/05/12 00:05:46;;;;;;;;;3.50;2.75;;;;;19.86;84.73;101394.06;5036559;28;45911;-80
2022/05/12 00:08:12;;;;;;;;;2.25;2.25;;;;;19.83;84.93;101390.44;5037184;28;45413;-80
2022/05/12 00:10:40;;;;;;;;;2.75;1.50;;;;;19.80;85.47;101389.56;5034347;28;45601;-80
2022/05/12 00:13:07;;;;;;;;;6.75;2.00;;;;;19.80;84.53;101388.66;5036994;28;45253;-80
2022/05/12 00:15:34;;;;;;;;;6.25;4.25;;;;;19.77;85.24;101389.50;5037976;28;45511;-80
2022/05/12 00:18:04;;;;;;;;;2.25;2.25;;;;;19.76;85.17;101395.59;5018917;28;45745;-81
2022/05/12 00:20:33;;;;;;;;;5.50;3.00;;;;;19.75;85.80;101406.97;5036532;28;45301;-80
2022/05/12 00:23:15;;;;;;;;;3.50;2.75;;;;;19.76;85.37;101408.75;5036140;28;46125;-80
2022/05/12 00:25:44;;;;;;;;;3.25;2.00;;;;;19.71;85.39;101404.28;5018560;28;45317;-80
2022/05/12 00:28:11;;;;;;;;;4.25;2.50;;;;;19.75;85.18;101406.09;5036568;28;45408;-80
2022/05/12 00:30:37;;;;;;;;;3.75;2.25;;;;;19.73;84.81;101407.81;5036424;28;45574;-80
2022/05/12 00:33:04;;;;;;;;;6.25;4.00;;;;;19.71;85.47;101413.03;5017963;28;47912;-80
2022/05/12 00:35:30;;;;;;;;;2.75;2.75;;;;;19.73;84.80;101421.81;5017722;28;45423;-81
2022/05/12 00:37:56;;;;;;;;;4.00;4.00;;;;;19.75;85.22;101430.63;5036160;28;45245;-81
2022/05/12 00:40:22;;;;;;;;;3.25;3.00;;;;;19.73;84.68;101428.84;5036392;28;45601;-80
2022/05/12 00:43:03;;;;;;;;;4.75;3.00;;;;;19.70;84.05;101434.94;5036550;28;45372;-80
2022/05/12 00:45:31;;;;;;;;;6.75;3.25;;;;;19.64;85.38;101434.81;5036388;28;45368;-80
2022/05/12 00:47:57;;;;;;;;;7.50;4.00;;;;;19.58;84.75;101435.59;5036262;28;45641;-80
2022/05/12 00:50:29;;;;;;;;;4.25;2.75;;;;;19.54;84.60;101440.75;5036206;28;45337;-80
2022/05/12 00:52:57;;;;;;;;;4.75;3.00;;;;;19.49;84.56;101433.66;5014874;28;46542;-80
2022/05/12 00:55:30;;;;;;;;;4.00;4.00;;;;;19.49;84.47;101443.31;5021918;28;45752;-80
2022/05/12 00:57:58;;;;;;;;;2.25;2.00;;;;;19.49;84.03;101449.44;5034628;28;45460;-80
2022/05/12 01:00:26;;;;;;;;;3.75;3.00;;;;;19.48;83.62;101447.69;5035597;28;45306;-80
2022/05/12 01:02:57;;;;;;;;;5.75;3.75;;;;;19.40;83.38;101449.25;5036088;28;45396;-79
2022/05/12 01:05:25;;;;;;;;;4.50;4.00;;;;;19.35;83.86;101453.56;5017676;28;45437;-79
2022/05/12 01:07:55;;;;;;;;;3.75;3.00;;;;;19.28;84.51;101456.91;5036284;28;45384;-79
2022/05/12 01:10:22;;;;;;;;;6.75;3.25;;;;;19.22;85.30;101455.03;5018364;28;45648;-79
2022/05/12 01:12:50;;;;;;;;;6.25;3.50;;;;;19.14;85.43;101462.78;5018164;28;45691;-79
2022/05/12 01:15:17;;;;;;;;;5.00;5.00;;;;;19.07;85.60;101462.63;5035655;28;45691;-79
2022/05/12 01:17:44;;;;;;;;;4.25;3.00;;;;;19.05;86.22;101460.00;5036597;28;45381;-79
2022/05/12 01:20:11;;;;;;;;;5.50;5.50;;;;;18.99;86.44;101467.72;5018737;28;45526;-79
2022/05/12 01:22:51;;;;;;;;;5.00;3.75;;;;;18.99;86.58;101476.50;5017359;28;45660;-79
2022/05/12 01:25:21;;;;;;;;;12.25;5.75;;;;;18.91;87.16;101471.91;5017752;28;46021;-79
2022/05/12 01:27:47;;;;;;;;;5.00;4.75;;;;;18.95;87.40;101471.16;5035492;28;45282;-80
2022/05/12 01:30:17;;;;;;;;;6.50;4.50;;;;;18.96;87.16;101472.91;5018922;28;45601;-80
2022/05/12 01:32:47;;;;;;;;;7.75;6.00;;;;;18.96;86.79;101476.41;5018521;28;47252;-80
2022/05/12 01:35:15;;;;;;;;;6.00;6.00;;;;;18.95;86.40;101471.16;5035808;28;45557;-80
2022/05/12 01:37:43;;;;;;;;;9.00;6.25;;;;;18.94;87.80;101469.38;5036269;28;45343;-80
2022/05/12 01:40:14;;;;;;;;;8.00;7.00;;;;;18.93;87.51;101484.22;5036001;28;45303;-80
2022/05/12 01:42:40;;;;;;;;;8.50;7.25;;;;;18.92;87.17;101477.16;5035664;28;45410;-80
2022/05/12 01:45:08;;;;;;;;;9.25;7.25;;;;;18.90;87.67;101480.63;5035418;28;45379;-80
2022/05/12 01:47:36;;;;;;;;;9.50;6.75;;;;;18.87;87.28;101487.56;5035548;28;45312;-81
2022/05/12 01:50:01;;;;;;;;;9.50;6.75;;;;;18.87;86.13;101482.31;5035711;28;45277;-80
2022/05/12 01:52:27;;;;;;;;;4.25;4.00;;;;;18.85;83.56;101497.13;5035142;28;46081;-80
2022/05/12 01:54:53;;;;;;;;;6.25;3.00;;;;;18.82;82.14;101496.19;5035328;28;45485;-81
2022/05/12 01:57:19;;;;;;;;;5.25;2.25;;;;;18.80;81.17;101504.03;5037503;28;45265;-81
2022/05/12 01:59:45;;;;;;;;;2.50;2.50;;;;;18.78;80.25;101497.88;5036893;28;45538;-80
2022/05/12 02:02:10;;;;;;;;;3.00;3.00;;;;;18.78;79.19;101500.47;5035368;28;45449;-81
2022/05/12 02:04:36;;;;;;;;;1.75;1.75;;;;;18.76;77.58;101514.44;5017332;28;45411;-81
2022/05/12 02:07:02;;;;;;;;;1.50;1.00;;;;;18.72;76.70;101518.72;5035330;28;45260;-81
2022/05/12 02:09:28;;;;;;;;;3.50;0.75;;;;;18.67;77.16;101504.59;5035540;28;45298;-79
2022/05/12 02:11:54;;;;;;;;;2.25;1.00;;;;;18.65;77.18;101512.44;5017348;28;46957;-81
2022/05/12 02:14:19;;;;;;;;;3.00;2.00;;;;;18.65;77.08;101516.78;5035231;28;45264;-81
2022/05/12 02:16:45;;;;;;;;;3.00;1.00;;;;;18.64;75.73;101517.66;5017526;28;45245;-80
2022/05/12 02:19:11;;;;;;;;;3.25;2.00;;;;;18.62;74.95;101519.38;5035887;28;45297;-81
2022/05/12 02:21:37;;;;;;;;;2.00;1.00;;;;;18.58;73.74;101520.13;5035866;28;46171;-81
2022/05/12 02:24:05;;;;;;;;;1.00;1.00;;;;;18.52;74.00;101523.50;5037620;28;45449;-81
2022/05/12 02:26:31;;;;;;;;;1.75;1.75;;;;;18.49;74.22;101533.91;5035174;28;45425;-80
2022/05/12 02:28:57;;;;;;;;;1.75;1.75;;;;;18.46;74.43;101537.34;5035521;28;45417;-80
2022/05/12 02:31:23;;;;;;;;;4.00;1.00;;;;;18.45;74.38;101532.09;5034709;28;45354;-81
2022/05/12 02:33:49;;;;;;;;;1.00;1.00;;;;;18.42;75.13;101543.34;5035918;28;45311;-81
2022/05/12 02:36:15;;;;;;;;;2.75;2.00;;;;;18.44;74.81;101541.66;5038048;28;45485;-81
2022/05/12 02:38:40;;;;;;;;;3.00;1.00;;;;;18.35;75.36;101544.06;5039081;28;45209;-81
2022/05/12 02:41:07;;;;;;;;;2.00;1.00;;;;;18.28;76.17;101540.41;5037823;28;45272;-81
2022/05/12 02:43:32;;;;;;;;;1.00;1.00;;;;;18.23;77.12;101544.66;5020190;28;45677;-82
2022/05/12 02:46:05;;;;;;;;;3.00;1.00;;;;;18.23;77.13;101561.28;5038536;28;45495;-81
2022/05/12 02:48:34;;;;;;;;;4.00;1.00;;;;;18.19;78.02;101559.44;5040007;28;45320;-81
2022/05/12 02:51:00;;;;;;;;;1.00;1.00;;;;;18.16;77.59;101559.34;5040127;28;46221;-80
2022/05/12 02:53:28;;;;;;;;;0.00;0.00;;;;;18.14;78.19;101557.53;5038666;28;45427;-81
2022/05/12 02:55:54;;;;;;;;;2.25;1.00;;;;;18.13;78.37;101558.38;5038229;28;45302;-81
2022/05/12 02:58:19;;;;;;;;;2.75;1.00;;;;;18.17;78.60;101560.22;5038183;28;45342;-81
2022/05/12 03:00:49;;;;;;;;;2.50;1.00;;;;;18.19;78.55;101563.78;5020020;28;47025;-80
2022/05/12 03:03:15;;;;;;;;;2.00;1.00;;;;;18.19;78.85;101569.03;5037517;28;45719;-80
2022/05/12 03:05:41;;;;;;;;;3.50;1.50;;;;;18.19;78.48;101575.16;5038408;28;45487;-80
2022/05/12 03:08:08;;;;;;;;;1.00;1.00;;;;;18.21;78.84;101576.06;5037961;28;45471;-82
2022/05/12 03:10:35;;;;;;;;;3.50;1.00;;;;;18.22;78.74;101572.59;5037414;28;45318;-82
2022/05/12 03:13:01;;;;;;;;;2.75;1.75;;;;;18.22;79.00;101585.69;5037607;28;45671;-81
2022/05/12 03:15:27;;;;;;;;;2.00;2.00;;;;;18.18;79.52;101586.50;5021763;28;45325;-82
2022/05/12 03:17:53;;;;;;;;;2.00;1.25;;;;;18.12;79.60;101583.69;5038054;28;45478;-81
2022/05/12 03:20:22;;;;;;;;;1.75;1.75;;;;;18.06;79.87;101584.41;5019605;28;47500;-81
2022/05/12 03:22:49;;;;;;;;;3.00;1.50;;;;;18.00;80.60;101568.56;5037754;28;45347;-81
2022/05/12 03:25:17;;;;;;;;;2.00;1.00;;;;;18.03;80.30;101573.84;5037458;28;45236;-81
2022/05/12 03:27:44;;;;;;;;;0.50;0.50;;;;;18.02;80.52;101582.59;5038304;28;45300;-82
2022/05/12 03:30:17;;;;;;;;;2.00;0.75;;;;;18.04;80.63;101585.22;5037564;28;45478;-81
2022/05/12 03:32:43;;;;;;;;;2.00;1.25;;;;;17.99;81.82;101578.97;5037947;28;45725;-81
2022/05/12 03:35:11;;;;;;;;;2.00;1.00;;;;;17.90;81.99;101582.22;5037394;28;45413;-81
2022/05/12 03:37:38;;;;;;;;;1.75;1.75;;;;;17.83;82.59;101575.91;5037479;28;45549;-82
2022/05/12 03:40:08;;;;;;;;;1.00;1.00;;;;;17.73;83.47;101569.53;5038049;28;45442;-81
2022/05/12 03:42:34;;;;;;;;;2.00;2.00;;;;;17.67;83.08;101577.22;5037601;28;45689;-81
2022/05/12 03:45:00;;;;;;;;;1.50;1.50;;;;;17.63;84.28;101568.41;5037150;28;45399;-81
2022/05/12 03:47:33;;;;;;;;;0.75;0.75;;;;;17.59;85.02;101571.78;5037435;28;45405;-81
2022/05/12 03:50:14;;;;;;;;;1.75;1.00;;;;;17.56;85.02;101568.19;5036996;28;46290;-81
2022/05/12 03:52:40;;;;;;;;;1.00;1.00;;;;;17.55;85.57;101576.88;5037416;28;45269;-82
2022/05/12 03:55:10;;;;;;;;;7.50;3.00;;;;;17.53;85.85;101568.09;5019499;28;45288;-82
2022/05/12 03:57:36;;;;;;;;;2.00;1.00;;;;;17.48;85.51;101576.72;5037194;28;45350;-81
2022/05/12 04:00:06;;;;;;;;;3.00;2.00;;;;;17.42;86.50;101573.03;5019352;28;47817;-81
2022/05/12 04:02:32;;;;;;;;;2.00;2.00;;;;;17.43;86.84;101574.81;5036975;28;45230;-81
2022/05/12 04:04:59;;;;;;;;;2.75;1.25;;;;;17.43;87.23;101590.53;5027945;28;45344;-81
2022/05/12 04:07:26;;;;;;;;;2.75;2.00;;;;;17.40;86.80;101585.19;5037401;28;45593;-82
2022/05/12 04:09:52;;;;;;;;;1.25;1.00;;;;;17.39;87.40;101593.88;5037069;28;45406;-81
2022/05/12 04:12:19;;;;;;;;;2.50;1.50;;;;;17.36;87.42;101594.69;5036740;28;45665;-80
2022/05/12 04:14:45;;;;;;;;;4.00;2.25;;;;;17.36;89.81;101599.00;5018928;28;45372;-81
2022/05/12 04:17:15;;;;;;;;;1.25;1.25;;;;;17.33;87.90;101603.31;5037171;28;45573;-80
2022/05/12 04:19:47;;;;;;;;;4.00;2.00;;;;;17.24;88.26;101600.41;5037202;28;46393;-81
2022/05/12 04:22:14;;;;;;;;;3.50;0.50;;;;;17.21;88.31;101599.44;5037304;28;45470;-80
2022/05/12 04:24:40;;;;;;;;;2.00;2.00;;;;;17.17;88.40;101599.34;5037462;28;45380;-82
2022/05/12 04:27:06;;;;;;;;;2.25;1.00;;;;;17.13;88.58;101613.19;5037130;28;45426;-82
2022/05/12 04:29:37;;;;;;;;;2.25;1.75;;;;;17.15;88.98;101615.84;5036581;28;46197;-79
2022/05/12 04:32:03;;;;;;;;;3.25;1.00;;;;;17.16;89.81;101608.06;5035868;28;45696;-80
2022/05/12 04:37:12;;;;;;;;;2.25;1.75;;;;;17.07;89.98;101613.00;5037140;28;45340;-80
2022/05/12 04:39:38;;;;;;;;;2.00;2.00;;;;;17.04;90.63;101614.63;5036006;28;46183;-80
2022/05/12 04:42:05;;;;;;;;;2.75;2.00;;;;;17.04;90.74;101617.25;5036118;28;45418;-82
2022/05/12 04:44:31;;;;;;;;;2.00;2.00;;;;;17.04;90.76;101623.38;5036259;28;45359;-79
2022/05/12 04:46:57;;;;;;;;;6.25;2.00;;;;;17.07;90.37;101622.59;5036751;28;45425;-80
2022/05/12 04:49:23;;;;;;;;;2.75;2.25;;;;;17.06;90.53;101626.91;5035524;28;45411;-80
2022/05/12 04:51:49;;;;;;;;;2.00;2.00;;;;;17.05;90.49;101629.50;5035795;28;45727;-80
2022/05/12 04:54:15;;;;;;;;;2.00;2.00;;;;;17.03;90.86;101632.06;5036260;28;45420;-80
2022/05/12 04:56:42;;;;;;;;;3.25;2.50;;;;;17.06;91.48;101637.38;5037012;28;45368;-81
2022/05/12 04:59:09;;;;;;;;;3.00;1.75;;;;;17.02;91.42;101625.94;5036699;28;45448;-79
2022/05/12 05:01:36;;;;;;;;;2.25;2.25;;;;;17.01;91.55;101631.13;5018439;28;45486;-79
2022/05/12 05:04:03;;;;;;;;;4.25;1.75;;;;;17.00;91.60;101634.59;5035739;28;45355;-80
2022/05/12 05:06:31;;;;;;;;;4.25;2.50;;;;;17.02;91.48;101633.78;5035637;28;45645;-80
2022/05/12 05:08:58;;;;;;;;;7.00;2.00;;;;;17.04;91.23;101641.69;5017746;28;46737;-80
2022/05/12 05:11:24;;;;;;;;;4.75;2.00;;;;;17.05;90.63;101639.97;5035525;28;45453;-80
2022/05/12 05:13:50;;;;;;;;;1.50;1.50;;;;;16.93;92.05;101630.84;5035984;28;45398;-79
2022/05/12 05:16:17;;;;;;;;;3.00;3.00;;;;;16.90;91.92;101635.97;5036098;28;45358;-79
2022/05/12 05:18:44;;;;;;;;;1.25;1.00;;;;;16.86;92.81;101640.22;5035538;28;46126;-79
2022/05/12 05:21:11;;;;;;;;;3.00;1.75;;;;;16.82;93.13;101638.38;5036042;28;45761;-80
2022/05/12 05:23:38;;;;;;;;;4.00;1.75;;;;;16.75;93.27;101644.22;5036476;28;45298;-78
2022/05/12 05:26:07;;;;;;;;;2.00;2.00;;;;;16.65;94.16;101658.72;5036630;28;45444;-81
2022/05/12 05:28:35;;;;;;;;;2.50;1.00;;;;;16.59;94.46;101653.28;5035679;28;45400;-81
2022/05/12 05:31:01;;;;;;;;;3.00;1.50;;;;;16.55;94.54;101654.03;5035704;28;45675;-81
2022/05/12 05:33:27;;;;;;;;;2.00;2.00;;;;;16.53;95.18;101656.56;5035783;28;45178;-80
2022/05/12 05:35:53;;;;;;;;;2.00;2.00;;;;;16.51;94.96;101658.28;5036196;28;45395;-81
2022/05/12 05:38:19;;;;;;;;;4.25;2.75;;;;;16.51;95.44;101668.72;5034477;28;45395;-79
2022/05/12 05:40:45;;;;;;;;;3.00;2.50;;;;;16.51;94.72;101673.94;5007016;28;45461;-80
2022/05/12 05:43:11;;;;;;;;;3.50;2.25;;;;;16.47;95.86;101672.06;5022533;28;45339;-81
2022/05/12 05:45:37;;;;;;;;;6.00;2.00;;;;;16.48;97.38;101673.84;5025888;28;45356;-80
2022/05/12 05:48:06;;;;;;;;;3.25;3.00;;;;;16.50;96.62;101680.00;5027863;28;45217;-81
2022/05/12 05:53:25;;;;;;;;;2.50;2.50;;;;;16.55;96.69;101685.41;5030948;28;45367;-82
2022/05/12 05:56:00;;;;;;;;;4.00;3.00;;;;;16.56;96.23;101689.78;5008625;28;45661;-82
2022/05/12 05:58:27;;;;;;;;;4.00;1.00;;;;;16.55;95.88;101696.72;5019142;28;45325;-82
2022/05/12 06:00:54;;;;;;;;;4.00;3.00;;;;;16.56;96.12;101700.25;5015436;28;45787;-81
2022/05/12 06:03:22;;;;;;;;;4.00;2.00;;;;;16.59;95.91;101716.03;5017046;28;45341;-83
2022/05/12 06:05:49;;;;;;;;;3.00;2.75;;;;;16.60;95.42;101730.88;5018454;28;45531;-84
2022/05/12 06:08:20;;;;;;;;;3.00;2.75;;;;;16.58;95.55;101719.47;5036065;28;45340;-86
2022/05/12 06:10:47;;;;;;;;;5.75;3.00;;;;;16.56;94.81;101718.56;5030664;28;45858;-79
2022/05/12 06:13:14;;;;;;;;;4.50;3.50;;;;;16.56;95.15;101719.44;5002176;28;45402;-81
2022/05/12 06:15:43;;;;;;;;;3.25;3.25;;;;;16.59;95.43;101731.69;5020308;28;45275;-80
2022/05/12 06:18:13;;;;;;;;;4.50;2.50;;;;;16.65;95.20;101731.03;5022771;28;45811;-76
2022/05/12 06:20:41;;;;;;;;;6.50;3.25;;;;;16.66;94.34;101731.09;5019499;28;45725;-79
2022/05/12 06:23:08;;;;;;;;;2.75;2.75;;;;;16.64;93.78;101726.63;5020313;28;45334;-77
2022/05/12 06:25:35;;;;;;;;;4.50;3.00;;;;;16.64;93.37;101735.38;5038447;28;45380;-83
2022/05/12 06:28:01;;;;;;;;;3.00;3.00;;;;;16.64;93.95;101730.16;5034922;28;45926;-83
2022/05/12 06:30:29;;;;;;;;;4.25;3.00;;;;;16.72;93.79;101738.28;5025794;28;45507;-78
2022/05/12 06:32:56;;;;;;;;;2.00;2.00;;;;;16.77;93.04;101736.69;5026155;28;45309;-77
2022/05/12 06:35:24;;;;;;;;;5.75;3.50;;;;;16.84;92.07;101736.06;5011981;28;45249;-77
2022/05/12 06:37:51;;;;;;;;;2.00;2.00;;;;;16.89;91.80;101736.22;5033338;28;46087;-77
2022/05/12 06:40:18;;;;;;;;;2.00;2.00;;;;;16.95;91.24;101741.69;5038594;28;45417;-78
2022/05/12 06:42:45;;;;;;;;;3.50;3.25;;;;;16.97;90.39;101742.63;5039319;28;45428;-77
2022/05/12 06:45:15;;;;;;;;;2.75;2.50;;;;;16.96;89.79;101753.03;5039197;28;45633;-79
2022/05/12 06:47:50;;;;;;;;;2.00;2.00;;;;;16.94;90.09;101750.38;5036790;28;45442;-79
2022/05/12 06:50:19;;;;;;;;;5.75;2.50;;;;;16.96;89.54;101756.56;5002382;28;45478;-77
2022/05/12 06:52:47;;;;;;;;;5.00;3.00;;;;;16.98;89.34;101746.13;5037542;28;45392;-78
2022/05/12 06:55:13;;;;;;;;;3.00;3.00;;;;;17.00;88.90;101750.59;5038711;28;45435;-78
2022/05/12 06:57:43;;;;;;;;;8.50;4.75;;;;;17.02;88.67;101753.25;5019215;28;45452;-79
2022/05/12 07:00:10;;;;;;;;;4.75;3.00;;;;;17.01;88.71;101747.13;5036712;28;46056;-78
2022/05/12 07:02:38;;;;;;;;;3.00;2.00;;;;;17.06;88.11;101747.25;5036507;28;45303;-77
2022/05/12 07:05:04;;;;;;;;;3.50;3.25;;;;;17.11;88.55;101752.69;5038347;28;45592;-83
2022/05/12 07:07:30;;;;;;;;;6.00;4.00;;;;;17.12;88.81;101757.94;5039225;28;45993;-87
2022/05/12 07:09:55;;;;;;;;;4.00;4.00;;;;;17.12;88.93;101752.72;5038077;28;45422;-91
2022/05/12 07:12:23;;;;;;;;;4.25;4.00;;;;;17.12;88.11;101757.94;5034049;28;45434;-81
2022/05/12 07:14:49;;;;;;;;;5.00;2.25;;;;;17.09;86.76;101757.84;5036379;28;45363;-80
2022/05/12 07:17:22;;;;;;;;;3.25;2.25;;;;;17.14;86.96;101758.00;5045865;28;46263;-80
2022/05/12 07:19:49;;;;;;;;;4.00;2.00;;;;;17.13;86.59;101758.81;5035821;28;45892;-81
2022/05/12 07:27:43;;;;;;;;;3.00;3.00;;;;;17.24;86.17;101757.44;5036924;28;45416;-82
2022/05/12 07:30:10;;;;;;;;;3.50;2.50;;;;;17.26;86.15;101750.53;5036570;28;45473;-81
2022/05/12 07:32:37;;;;;;;;;6.25;3.25;;;;;17.30;85.88;101744.59;5017932;28;46889;-82
2022/05/12 07:35:05;;;;;;;;;4.00;3.25;;;;;17.32;85.49;101745.53;5038195;28;45483;-82
2022/05/12 07:37:31;;;;;;;;;3.00;3.00;;;;;17.35;83.37;101743.81;5045261;28;45998;-81
2022/05/12 07:39:56;;;;;;;;;5.00;3.00;;;;;17.32;80.87;101744.63;5040548;28;45331;-81
2022/05/12 07:42:22;;;;;;;;;3.00;2.25;;;;;17.33;81.70;101746.41;5034024;28;45256;-80
2022/05/12 07:44:48;;;;;;;;;5.00;3.50;;;;;17.35;81.92;101755.19;5036073;28;45383;-80
2022/05/12 07:47:13;;;;;;;;;3.25;2.75;;;;;17.41;81.66;101754.50;5037020;28;45711;-80
2022/05/12 07:49:40;;;;;;;;;3.00;2.75;;;;;17.46;80.51;101758.13;5036063;28;45301;-81
2022/05/12 07:52:09;;;;;;;;;2.50;2.50;;;;;17.50;80.40;101746.94;5036999;28;45276;-82
2022/05/12 07:54:35;;;;;;;;;4.00;1.25;;;;;17.58;78.38;101760.28;5036926;28;45539;-82
2022/05/12 07:57:02;;;;;;;;;2.50;2.25;;;;;17.56;77.86;101757.59;5036720;28;46368;-82
2022/05/12 07:59:29;;;;;;;;;3.25;3.25;;;;;17.61;76.23;101756.00;5035789;28;45921;-80
2022/05/12 08:01:58;;;;;;;;;2.75;1.75;;;;;17.63;74.19;101758.66;5017484;28;45475;-81
2022/05/12 08:04:25;;;;;;;;;1.50;1.25;;;;;17.61;74.74;101763.88;5035745;28;45580;-83
2022/05/12 08:06:51;;;;;;;;;2.00;1.00;;;;;17.62;74.13;101762.13;5035952;28;46111;-83
2022/05/12 08:09:16;;;;;;;;;2.50;2.00;;;;;17.64;73.37;101766.59;5017746;28;45565;-81
2022/05/12 08:11:42;;;;;;;;;2.00;1.00;;;;;17.68;71.97;101770.19;5036187;28;45341;-83
2022/05/12 08:14:10;;;;;;;;;3.00;1.50;;;;;17.69;71.72;101766.72;5036080;28;45575;-82
2022/05/12 08:16:37;;;;;;;;;1.25;1.25;;;;;17.68;71.45;101762.34;5034548;28;47669;-81
2022/05/12 08:19:03;;;;;;;;;2.00;2.00;;;;;17.67;71.80;101770.13;5018708;28;45605;-80
2022/05/12 08:21:28;;;;;;;;;1.50;1.50;;;;;17.69;71.29;101773.69;5035602;28;45517;-81
2022/05/12 08:23:54;;;;;;;;;3.50;1.50;;;;;17.71;71.08;101778.13;5036980;28;45322;-79
2022/05/12 08:26:21;;;;;;;;;2.00;1.00;;;;;17.71;70.62;101772.88;5034461;28;46048;-79
2022/05/12 08:28:49;;;;;;;;;1.00;1.00;;;;;17.73;67.11;101773.81;5035421;28;45444;-80
2022/05/12 08:31:15;;;;;;;;;2.00;1.00;;;;;17.74;67.00;101769.50;5034407;28;45498;-80
2022/05/12 08:33:40;;;;;;;;;1.00;1.00;;;;;17.81;66.94;101770.56;5034868;28;45432;-80
2022/05/12 08:36:07;;;;;;;;;1.75;1.75;;;;;17.86;66.78;101772.50;5034219;28;45478;-78
2022/05/12 08:38:34;;;;;;;;;2.50;2.00;;;;;17.91;65.78;101778.75;5029554;28;45733;-79
2022/05/12 08:41:15;;;;;;;;;2.50;2.50;;;;;17.93;66.04;101769.19;5035765;28;45897;-79
2022/05/12 08:43:43;;;;;;;;;2.25;1.25;;;;;17.97;66.64;101780.69;5036267;28;45451;-80
2022/05/12 08:46:14;;;;;;;;;1.75;1.25;;;;;18.01;66.75;101771.19;5034298;28;45525;-80
2022/05/12 08:48:43;;;;;;;;;1.50;1.50;;;;;18.04;67.16;101774.78;5035607;28;45233;-80
2022/05/12 08:51:15;;;;;;;;;1.00;1.00;;;;;18.06;65.23;101778.34;5016540;28;45415;-79
2022/05/12 08:54:18;;;;;;;;;2.25;1.25;;;;;18.05;65.46;101773.06;5017464;28;45570;-78
2022/05/12 08:56:45;;;;;;;;;3.00;1.00;;;;;18.08;64.41;101765.31;5014166;28;45491;-79
2022/05/12 08:59:12;;;;;;;;;6.25;1.25;;;;;18.10;65.52;101766.22;5035369;28;45601;-78
2022/05/12 09:01:55;;;;;;;;;1.50;1.00;;;;;18.11;65.25;101760.13;5033762;28;45478;-80
2022/05/12 09:04:30;;;;;;;;;6.00;2.00;;;;;18.15;66.04;101763.72;5035353;28;45396;-80
2022/05/12 09:07:10;;;;;;;;;2.75;2.00;;;;;18.23;66.37;101760.47;5035525;28;46058;-82
2022/05/12 09:09:50;;;;;;;;;2.50;2.00;;;;;18.31;66.12;101755.47;5034392;28;45934;-81
2022/05/12 09:12:40;;;;;;;;;1.00;1.00;;;;;18.35;65.54;101745.94;5038650;28;45432;-92
2022/05/12 09:15:12;;;;;;;;;1.00;1.00;;;;;18.40;66.07;101754.84;5025641;28;45434;-88
2022/05/12 09:18:04;;;;;;;;;3.00;2.00;;;;;18.44;65.29;101764.53;5033986;28;45669;-80
2022/05/12 09:20:33;;;;;;;;;3.25;2.00;;;;;18.45;64.69;101757.59;5035979;28;45807;-83
2022/05/12 09:23:03;;;;;;;;;4.25;3.00;;;;;18.52;64.38;101770.00;5035608;28;45364;-79
2022/05/12 09:25:39;;;;;;;;;2.25;1.00;;;;;18.56;63.66;101770.13;5035473;28;45593;-79
2022/05/12 09:28:35;;;;;;;;;3.00;2.00;;;;;18.62;63.05;101769.41;5035408;28;45756;-79
2022/05/12 09:31:17;;;;;;;;;0.75;0.75;;;;;18.66;63.75;101760.78;5030145;28;45660;-79
2022/05/12 09:33:46;;;;;;;;;2.00;1.25;;;;;18.83;63.49;101766.47;5016897;28;45350;-80
2022/05/12 09:36:19;;;;;;;;;4.00;1.50;;;;;18.96;63.45;101751.97;5034083;28;45527;-80
2022/05/12 09:38:46;;;;;;;;;2.75;1.00;;;;;19.11;62.28;101759.31;5035046;28;45312;-79
2022/05/12 09:41:20;;;;;;;;;3.00;2.00;;;;;19.17;62.40;101751.59;5035316;28;45194;-80
2022/05/12 09:43:45;;;;;;;;;2.00;1.00;;;;;19.29;61.84;101756.28;5037363;28;45423;-80
2022/05/12 09:46:31;;;;;;;;;2.00;2.00;;;;;19.29;61.61;101743.13;5021872;28;45251;-79
2022/05/12 09:49:42;;;;;;;;;1.00;1.00;;;;;19.38;60.99;101755.63;5038517;28;46113;-82
2022/05/12 09:52:32;;;;;;;;;2.00;2.00;;;;;19.45;60.64;101743.47;4956464;28;45654;-83
2022/05/12 09:55:15;;;;;;;;;3.50;2.00;;;;;19.57;61.59;101745.53;4957808;28;45447;-80
2022/05/12 09:57:49;;;;;;;;;1.25;1.25;;;;;19.68;60.52;101745.75;5022019;28;45369;-79
2022/05/12 10:00:38;;;;;;;;;3.00;1.50;;;;;19.74;60.78;101743.28;5038485;28;46225;-78
2022/05/12 10:09:10;;;;;;;;;2.00;1.00;;;;;19.76;59.08;101738.94;5039262;28;45513;-80
2022/05/12 10:12:02;;;;;;;;;2.00;2.00;;;;;19.80;58.67;101727.63;5019585;28;45951;-80
2022/05/12 10:14:48;;;;;;;;;1.00;1.00;;;;;19.89;58.87;101729.59;5037522;28;45756;-79
2022/05/12 10:17:32;;;;;;;;;3.25;1.00;;;;;20.00;58.33;101721.94;5037860;28;45747;-79
2022/05/12 10:20:04;;;;;;;;;2.75;2.00;;;;;20.10;58.19;101723.88;5038563;28;45323;-80
2022/05/12 10:22:39;;;;;;;;;6.00;5.00;;;;;20.14;59.22;101716.97;5037525;28;45433;-81
2022/05/12 10:25:56;;;;;;;;;2.00;2.00;;;;;20.21;58.32;101713.59;5037448;28;45445;-81
2022/05/12 10:28:41;;;;;;;;;4.00;1.50;;;;;20.19;58.51;101717.94;5037727;28;45457;-80
2022/05/12 10:31:26;;;;;;;;;2.00;1.75;;;;;20.19;57.65;101712.66;5038798;28;45514;-81
2022/05/12 10:34:16;;;;;;;;;1.00;1.00;;;;;20.18;57.73;101732.84;5039625;28;46092;-82
2022/05/12 10:37:01;;;;;;;;;1.75;1.00;;;;;20.15;57.07;101727.50;5039313;28;45614;-81
2022/05/12 10:39:38;;;;;;;;;2.50;2.00;;;;;20.11;57.08;101725.66;5037392;28;45438;-81
2022/05/12 10:42:04;;;;;;;;;4.00;2.00;;;;;20.10;57.79;101724.78;5020202;28;45369;-80
2022/05/12 10:44:30;;;;;;;;;2.00;2.00;;;;;20.12;58.03;101726.56;5037592;28;46469;-81
2022/05/12 10:47:41;;;;;;;;;4.25;2.75;;;;;20.12;57.48;101719.53;5047362;28;45404;-87
2022/05/12 10:50:20;;;;;;;;;3.00;2.25;;;;;20.20;58.40;101723.22;5041239;28;44790;-82
2022/05/12 10:53:16;;;;;;;;;3.00;2.00;;;;;20.31;58.32;101717.25;5054729;28;45505;-88
2022/05/12 10:55:58;;;;;;;;;3.00;3.00;;;;;20.40;57.55;101718.34;5024876;28;46892;-89
2022/05/12 10:58:37;;;;;;;;;2.75;2.00;;;;;20.42;57.09;101721.88;5045293;28;45743;-90
2022/05/12 11:01:19;;;;;;;;;2.00;2.00;;;;;20.40;57.08;101710.44;5040814;28;45311;-86
2022/05/12 11:04:10;;;;;;;;;4.00;2.25;;;;;20.45;57.77;101717.56;5041750;28;45414;-85
2022/05/12 11:06:42;;;;;;;;;4.00;1.75;;;;;20.45;56.60;101707.03;5039477;28;46395;-86
2022/05/12 11:09:25;;;;;;;;;5.25;2.00;;;;;20.42;56.95;101714.00;5038190;28;45868;-87
2022/05/12 11:11:56;;;;;;;;;4.00;2.75;;;;;20.47;56.52;101718.44;5038807;28;45380;-85
2022/05/12 11:14:33;;;;;;;;;4.75;4.00;;;;;20.49;57.05;101707.09;5040681;28;45414;-87
2022/05/12 11:17:19;;;;;;;;;1.00;1.00;;;;;20.62;57.14;101707.34;5038775;28;46676;-85
2022/05/12 11:20:02;;;;;;;;;2.50;0.75;;;;;20.73;55.77;101719.81;5038165;28;45891;-84
2022/05/12 11:23:09;;;;;;;;;3.75;1.25;;;;;20.84;55.75;101719.13;5020554;28;45390;-86
2022/05/12 11:25:47;;;;;;;;;3.00;2.00;;;;;20.97;56.26;101718.47;5010469;28;45892;-86
2022/05/12 11:31:21;;;;;;;;;1.75;1.75;;;;;21.23;54.81;101710.09;5038565;28;45724;-86
2022/05/12 11:33:54;;;;;;;;;2.75;2.25;;;;;21.34;54.68;101713.75;5037982;28;45240;-86
2022/05/12 11:36:35;;;;;;;;;1.25;1.25;;;;;21.38;53.52;101711.19;5038238;28;45443;-86
2022/05/12 11:39:31;;;;;;;;;4.50;2.00;;;;;21.40;53.23;101701.56;5017849;28;46847;-86
2022/05/12 11:42:17;;;;;;;;;3.50;1.00;;;;;21.54;53.56;101712.28;5020223;28;45421;-84
2022/05/12 11:45:03;;;;;;;;;2.00;2.00;;;;;21.58;54.32;101707.06;5038541;28;45367;-86
2022/05/12 11:47:44;;;;;;;;;1.25;1.25;;;;;21.62;53.41;101718.56;5037635;28;45235;-86
2022/05/12 11:50:24;;;;;;;;;2.50;1.50;;;;;21.65;53.50;101716.00;5037828;28;45770;-84
2022/05/12 11:53:12;;;;;;;;;3.00;1.25;;;;;21.75;53.88;101711.75;5039849;28;45615;-87
2022/05/12 11:56:09;;;;;;;;;2.25;2.00;;;;;21.85;53.68;101705.72;5020147;28;45183;-85
2022/05/12 11:58:38;;;;;;;;;1.50;1.00;;;;;21.88;53.18;101703.09;5037330;28;45860;-87
2022/05/12 12:01:09;;;;;;;;;1.50;1.50;;;;;21.95;53.59;101707.59;5037128;28;46135;-87